Sidney Richland Municipal Airport
KSDY : rendu visible

Aérodrome :











RETROUVEZ-NOUS SUR...

 
LOGIN :

S'inscrire | Disclaimer

   EN    FR    IT 

 









Légende :    VFR   VFR Marginal   IFR   IFR Intensif   IFR Très Intensif
Visi : 
Plafond : 
>= 8 km
>= 3000ft
5 à 8 km
1000 à 3000 ft
1500m à 5 km
500 à 1000 ft
800 à 1500m
200 à 500 ft
< 800m
< 200 ft
Symboles :   Orages  Brouillard  Fortes neiges  Fortes précipitations  Vent > 20 kt






- Altitude de l'aérodrome : 1985 ft


KSDY - Sidney Richland Municipal

DERNIER METAR :
  • 072356Z AUTO 30012KT 10SM CLR 30/07 A2981 RMK AO2 SLP488 T03000067 10328 20300 51014

METARs EXPIRÉS :
  • 072256Z AUTO 33015G19KT 10SM CLR 31/06 A2981 RMK AO2 SLP486 T03110061
  • 072156Z AUTO 34016G25KT 10SM FEW002 32/08 A2979 RMK AO2 SLP481 T03220078

TAF KSDY
Valide du 08 à 00h jusqu'au 09 à 00h UTC


072320Z 0800/0824 29017G25KT P6SM SKC
FM080900 VRB03KT P6SM SKC
FIR KZLC / Amérique du Nord



MET'MAP, la Météo Aéronautique d'un coup d'oeil ! - Copyright ORBIFLY Décembre 2007 - Disclaimer

ORBIFLY MET'MAP TEAM :

Programmation & Développement : Alexandra Zaïnal
Sur une idée originale de : Baudouin d'Aumeries
Assistance à la programmation : Marc-Olivier Méhu
Soutien technique & logistique : Manuel Goepfert

Contact : metmap@orbifly.com




SOURCES & CREDITS :

   NOAA       Earth
Advisory